Time;durP1;ratioP1;P1;durP2;ratioP2;P2;SDS_P1;SDS_P2;PMS_P1;PMS_P2;Temp;Humidity;BMP_temperature;BMP_pressure;BME280_temperature;BME280_humidity;BME280_pressure;Samples;Min_cycle;Max_cycle;Signal;HPM_P1;HPM_P2
2021/10/31 00:02:11;;;;;;;7.00;6.40;;;14.10;99.90;;;;;;5008333;28;20964;-45
2021/10/31 00:04:36;;;;;;;7.80;6.13;;;14.00;99.90;;;;;;5007610;28;20183;-44
2021/10/31 00:07:02;;;;;;;6.63;6.13;;;14.00;99.90;;;;;;5010459;28;20631;-46
2021/10/31 00:09:29;;;;;;;6.53;5.97;;;14.00;99.90;;;;;;5014908;28;20270;-44
2021/10/31 00:11:55;;;;;;;6.67;6.07;;;14.00;99.90;;;;;;5008184;28;20434;-44
2021/10/31 00:14:21;;;;;;;6.80;6.20;;;14.10;99.90;;;;;;5010539;28;20519;-43
2021/10/31 00:16:47;;;;;;;8.90;7.00;;;14.10;99.90;;;;;;5014581;28;20302;-48
2021/10/31 00:19:13;;;;;;;7.83;6.80;;;14.20;99.90;;;;;;5007936;28;20519;-45
2021/10/31 00:21:38;;;;;;;8.70;7.90;;;14.00;99.90;;;;;;5015643;28;20429;-46
2021/10/31 00:24:04;;;;;;;6.83;6.13;;;14.00;99.90;;;;;;5017236;28;20207;-48
2021/10/31 00:26:30;;;;;;;7.53;6.90;;;14.00;99.90;;;;;;5013159;28;20187;-45
2021/10/31 00:28:56;;;;;;;7.30;6.70;;;14.00;99.90;;;;;;5007652;28;20430;-46
2021/10/31 00:31:22;;;;;;;6.70;6.10;;;14.00;99.90;;;;;;5013012;28;20194;-43
2021/10/31 00:33:47;;;;;;;7.10;6.40;;;14.00;99.90;;;;;;5006857;28;20198;-45
2021/10/31 00:36:13;;;;;;;7.83;7.00;;;14.00;99.90;;;;;;5011516;28;20433;-46
2021/10/31 00:38:39;;;;;;;6.70;6.10;;;13.90;99.90;;;;;;5018474;28;20256;-45
2021/10/31 00:41:04;;;;;;;6.63;5.93;;;13.90;99.90;;;;;;5023675;28;20202;-44
2021/10/31 00:43:30;;;;;;;7.00;6.40;;;13.80;99.90;;;;;;5007011;28;20286;-43
2021/10/31 00:45:56;;;;;;;8.73;7.93;;;13.80;99.90;;;;;;5007152;28;20829;-44
2021/10/31 00:48:21;;;;;;;7.60;6.90;;;13.70;99.90;;;;;;5007589;28;20195;-43
2021/10/31 00:50:51;;;;;;;7.00;6.30;;;13.80;99.90;;;;;;5007008;28;20882;-45
2021/10/31 00:53:17;;;;;;;7.63;7.03;;;13.80;99.90;;;;;;5014658;28;20206;-45
2021/10/31 00:55:43;;;;;;;7.53;6.83;;;13.70;99.90;;;;;;5020955;28;20422;-44
2021/10/31 00:58:13;;;;;;;7.00;6.40;;;13.70;99.90;;;;;;5007057;28;20667;-43
2021/10/31 01:00:39;;;;;;;7.50;6.80;;;13.60;99.90;;;;;;5016992;28;20456;-43
2021/10/31 01:03:05;;;;;;;7.97;7.17;;;13.50;99.90;;;;;;5006399;28;20756;-44
2021/10/31 01:05:39;;;;;;;7.53;6.83;;;13.50;99.90;;;;;;5007321;28;20452;-44
2021/10/31 01:08:32;;;;;;;9.10;8.20;;;13.50;99.90;;;;;;5017258;28;20641;-44
2021/10/31 01:11:37;;;;;;;8.67;7.87;;;13.50;99.90;;;;;;5014262;28;20437;-48
2021/10/31 01:14:23;;;;;;;10.03;8.67;;;13.40;99.90;;;;;;5005668;28;20787;-44
2021/10/31 01:17:07;;;;;;;8.83;8.03;;;13.40;99.90;;;;;;5012614;28;20469;-46
2021/10/31 01:19:54;;;;;;;8.60;7.80;;;13.40;99.90;;;;;;5006973;28;20465;-51
2021/10/31 01:22:50;;;;;;;9.93;8.93;;;13.40;99.90;;;;;;5012316;28;20430;-43
2021/10/31 01:25:35;;;;;;;9.50;8.60;;;13.30;99.90;;;;;;5021475;28;20461;-46
2021/10/31 01:28:22;;;;;;;9.23;8.33;;;13.30;99.90;;;;;;5013870;28;20458;-45
2021/10/31 01:30:57;;;;;;;8.80;7.90;;;13.20;99.90;;;;;;5006913;28;20517;-44
2021/10/31 01:33:38;;;;;;;9.53;8.63;;;13.30;99.90;;;;;;5005499;28;20422;-48
2021/10/31 01:36:12;;;;;;;9.07;8.10;;;13.20;99.90;;;;;;5006504;28;20421;-45
2021/10/31 01:38:48;;;;;;;10.27;9.00;;;13.30;99.90;;;;;;5013976;28;20955;-43
2021/10/31 01:41:41;;;;;;;9.27;8.37;;;13.30;99.90;;;;;;5018353;28;20415;-48
2021/10/31 01:44:12;;;;;;;9.87;8.97;;;13.20;99.90;;;;;;5005555;28;20429;-46
2021/10/31 01:46:59;;;;;;;12.27;8.37;;;13.20;99.90;;;;;;5017428;28;20537;-43
2021/10/31 01:49:34;;;;;;;8.77;7.87;;;13.20;99.90;;;;;;5006597;28;20429;-44
2021/10/31 01:52:03;;;;;;;9.77;8.87;;;13.20;99.90;;;;;;5006491;28;20942;-49
2021/10/31 01:54:35;;;;;;;10.57;8.20;;;13.20;99.90;;;;;;5011011;28;20448;-45
2021/10/31 01:57:06;;;;;;;10.10;8.20;;;13.30;99.90;;;;;;5013091;28;20524;-46
2021/10/31 01:59:37;;;;;;;9.43;8.43;;;13.30;99.90;;;;;;5005986;28;20477;-49
2021/10/31 02:02:06;;;;;;;9.33;8.30;;;13.30;99.90;;;;;;5013039;28;20509;-48
2021/10/31 02:04:36;;;;;;;9.37;8.17;;;13.20;99.90;;;;;;5005950;28;20422;-45
2021/10/31 02:07:03;;;;;;;9.67;8.37;;;13.20;99.90;;;;;;5014314;28;20429;-43
2021/10/31 02:09:31;;;;;;;10.43;8.20;;;13.20;99.90;;;;;;5011999;28;20812;-45
2021/10/31 02:11:58;;;;;;;9.27;8.37;;;13.10;99.90;;;;;;5022145;28;20420;-44
2021/10/31 02:14:26;;;;;;;9.23;8.13;;;13.10;99.90;;;;;;5005290;28;20468;-44
2021/10/31 02:16:55;;;;;;;10.20;7.43;;;13.10;99.90;;;;;;5008415;28;20417;-46
2021/10/31 02:19:35;;;;;;;7.80;7.00;;;13.10;99.90;;;;;;5005933;28;20469;-46
2021/10/31 02:22:03;;;;;;;8.17;6.87;;;13.10;99.90;;;;;;5007203;28;20426;-44
2021/10/31 02:24:29;;;;;;;12.37;6.80;;;12.90;99.90;;;;;;5015182;28;20422;-43
2021/10/31 02:26:56;;;;;;;12.03;7.10;;;12.80;99.90;;;;;;5012444;28;20476;-43
2021/10/31 02:29:22;;;;;;;12.83;7.53;;;12.70;99.90;;;;;;5006196;28;20433;-46
2021/10/31 02:31:47;;;;;;;8.67;6.20;;;12.60;99.90;;;;;;5017733;28;20422;-49
2021/10/31 02:34:14;;;;;;;6.20;5.60;;;12.60;99.90;;;;;;5005048;28;20434;-44
2021/10/31 02:36:40;;;;;;;8.60;5.60;;;12.60;99.90;;;;;;5005561;28;20206;-46
2021/10/31 02:39:07;;;;;;;6.70;6.10;;;12.50;99.90;;;;;;5017673;28;20492;-45
2021/10/31 02:41:34;;;;;;;7.17;6.37;;;12.50;99.90;;;;;;5013100;28;20440;-46
2021/10/31 02:44:01;;;;;;;10.03;6.40;;;12.50;99.90;;;;;;5005473;28;20417;-45
2021/10/31 02:46:31;;;;;;;7.50;5.70;;;12.50;99.90;;;;;;5012516;28;20451;-44
2021/10/31 02:48:57;;;;;;;8.83;5.93;;;12.50;99.90;;;;;;5005930;28;20414;-48
2021/10/31 02:51:32;;;;;;;6.57;5.80;;;12.60;99.90;;;;;;5006108;28;20422;-44
2021/10/31 02:54:13;;;;;;;6.63;5.20;;;12.60;99.90;;;;;;5017127;28;20451;-45
2021/10/31 02:56:46;;;;;;;6.47;5.87;;;12.50;99.90;;;;;;5022647;28;20420;-45
2021/10/31 02:59:22;;;;;;;7.10;5.80;;;12.50;99.90;;;;;;5013198;28;20723;-49
2021/10/31 03:01:49;;;;;;;7.03;6.10;;;12.40;99.90;;;;;;5011528;28;20471;-46
2021/10/31 03:04:18;;;;;;;7.83;6.13;;;12.30;99.90;;;;;;5008984;28;20788;-48
2021/10/31 03:06:45;;;;;;;6.40;5.33;;;12.40;99.90;;;;;;5017378;28;20420;-46
2021/10/31 03:09:11;;;;;;;7.10;5.90;;;12.50;99.90;;;;;;5017007;28;20438;-44
2021/10/31 03:11:37;;;;;;;6.30;5.20;;;12.50;99.90;;;;;;5022250;28;20574;-47
2021/10/31 03:14:04;;;;;;;6.20;5.27;;;12.50;99.90;;;;;;5009914;28;20426;-46
2021/10/31 03:16:32;;;;;;;9.30;6.83;;;12.40;99.90;;;;;;5018436;28;20429;-45
2021/10/31 03:18:58;;;;;;;7.53;5.93;;;12.40;99.90;;;;;;5010594;28;20868;-46
2021/10/31 03:21:24;;;;;;;6.40;5.80;;;12.40;99.90;;;;;;5009612;28;20422;-44
2021/10/31 03:23:49;;;;;;;7.00;5.77;;;12.40;99.90;;;;;;5012002;28;20194;-44
2021/10/31 03:26:15;;;;;;;6.90;5.43;;;12.40;99.90;;;;;;5019578;28;20190;-46
2021/10/31 03:28:40;;;;;;;7.30;5.70;;;12.30;99.90;;;;;;5020442;28;20327;-44
2021/10/31 03:31:06;;;;;;;7.67;5.57;;;12.30;99.90;;;;;;5023124;28;20674;-44
2021/10/31 03:33:32;;;;;;;7.93;5.70;;;12.40;99.90;;;;;;5010336;28;20219;-46
2021/10/31 03:35:57;;;;;;;7.90;6.20;;;12.30;99.90;;;;;;5009204;28;20187;-46
2021/10/31 03:38:25;;;;;;;8.67;6.30;;;12.40;99.90;;;;;;5012264;28;20187;-45
2021/10/31 03:40:51;;;;;;;11.03;6.07;;;12.40;99.90;;;;;;5021537;28;20214;-46
2021/10/31 03:43:19;;;;;;;6.73;5.43;;;12.40;99.90;;;;;;5022115;28;20945;-45
2021/10/31 03:45:45;;;;;;;8.03;6.07;;;12.40;99.90;;;;;;5010345;28;20706;-50
2021/10/31 03:48:10;;;;;;;6.40;5.00;;;12.40;99.90;;;;;;5010030;28;20426;-47
2021/10/31 03:50:36;;;;;;;8.73;5.80;;;12.30;99.90;;;;;;5008548;28;20195;-44
2021/10/31 03:53:02;;;;;;;7.50;6.00;;;12.30;99.90;;;;;;5011077;28;20669;-45
2021/10/31 03:55:28;;;;;;;7.27;5.10;;;12.20;99.90;;;;;;5020189;28;20187;-48
2021/10/31 03:57:56;;;;;;;10.33;5.60;;;12.20;99.90;;;;;;5017254;28;20257;-43
2021/10/31 04:00:21;;;;;;;10.60;5.47;;;12.20;99.90;;;;;;5008202;28;20257;-44
2021/10/31 04:02:47;;;;;;;5.93;5.40;;;12.10;99.90;;;;;;5020085;28;20433;-44
2021/10/31 04:05:13;;;;;;;5.50;4.93;;;12.10;99.90;;;;;;5007841;28;20238;-46
2021/10/31 04:07:40;;;;;;;6.77;5.23;;;12.10;99.90;;;;;;5019528;28;20187;-45
2021/10/31 04:10:07;;;;;;;5.50;4.80;;;12.10;99.90;;;;;;5013957;28;20414;-44
2021/10/31 04:12:33;;;;;;;7.40;5.47;;;12.00;99.90;;;;;;5008767;28;20426;-44
2021/10/31 04:14:59;;;;;;;6.60;5.13;;;12.00;99.90;;;;;;5007404;28;20463;-43
2021/10/31 04:17:25;;;;;;;9.70;5.60;;;12.00;99.90;;;;;;5015717;28;20490;-44
2021/10/31 04:19:50;;;;;;;6.00;5.40;;;12.00;99.90;;;;;;5007832;28;20218;-46
2021/10/31 04:22:16;;;;;;;7.30;5.10;;;12.10;99.90;;;;;;5007640;28;20423;-45
2021/10/31 04:24:42;;;;;;;7.13;5.90;;;12.10;99.90;;;;;;5021734;28;20183;-47
2021/10/31 04:27:07;;;;;;;8.87;6.40;;;12.10;99.90;;;;;;5016713;28;20575;-48
2021/10/31 04:29:34;;;;;;;6.27;5.43;;;12.00;99.90;;;;;;5007866;28;20198;-50
2021/10/31 04:31:59;;;;;;;7.70;6.03;;;12.00;99.90;;;;;;5012520;28;20522;-50
2021/10/31 04:34:25;;;;;;;7.23;6.20;;;12.00;99.90;;;;;;5007317;28;20807;-46
2021/10/31 04:36:51;;;;;;;9.00;6.23;;;11.90;99.90;;;;;;5007380;28;20183;-46
2021/10/31 04:39:18;;;;;;;6.97;5.60;;;11.80;99.90;;;;;;5012683;28;20218;-47
2021/10/31 04:41:45;;;;;;;7.83;6.17;;;11.70;99.90;;;;;;5026459;28;20447;-44
2021/10/31 04:44:11;;;;;;;7.23;6.30;;;11.70;99.90;;;;;;5005437;28;20786;-45
2021/10/31 04:46:37;;;;;;;6.83;5.60;;;11.60;99.90;;;;;;5007342;28;20891;-44
2021/10/31 04:49:03;;;;;;;6.93;6.10;;;11.60;99.90;;;;;;5007253;28;20442;-45
2021/10/31 04:51:29;;;;;;;9.03;6.83;;;11.60;99.90;;;;;;5006997;28;20324;-47
2021/10/31 04:53:54;;;;;;;11.33;7.40;;;11.70;99.90;;;;;;5014093;28;21097;-43
2021/10/31 04:56:23;;;;;;;9.00;7.00;;;11.90;99.90;;;;;;5016833;28;20725;-46
2021/10/31 04:58:50;;;;;;;12.63;7.10;;;11.90;99.90;;;;;;5010850;28;20547;-44
2021/10/31 05:01:16;;;;;;;9.40;7.50;;;12.00;99.90;;;;;;5008295;28;20430;-44
2021/10/31 05:03:42;;;;;;;11.63;7.60;;;12.00;99.90;;;;;;5014235;28;20923;-44
2021/10/31 05:06:07;;;;;;;11.27;8.10;;;11.90;99.90;;;;;;5010051;28;20428;-43
2021/10/31 05:08:33;;;;;;;7.73;6.97;;;11.90;99.90;;;;;;5020542;28;20224;-44
2021/10/31 05:10:59;;;;;;;11.33;8.23;;;11.90;99.90;;;;;;5017428;28;20187;-46
2021/10/31 05:13:24;;;;;;;8.50;7.23;;;11.90;99.90;;;;;;5022267;28;20193;-47
2021/10/31 05:15:50;;;;;;;10.53;7.77;;;11.80;99.90;;;;;;5008234;28;20226;-46
2021/10/31 05:18:16;;;;;;;8.23;7.10;;;11.70;99.90;;;;;;5011947;28;20222;-44
2021/10/31 05:20:41;;;;;;;7.43;6.17;;;11.50;99.90;;;;;;5006237;28;20741;-46
2021/10/31 05:23:07;;;;;;;8.03;7.20;;;11.40;99.90;;;;;;5007512;28;20348;-47
2021/10/31 05:25:33;;;;;;;8.67;7.17;;;11.30;99.90;;;;;;5016717;28;20191;-46
2021/10/31 05:27:59;;;;;;;9.43;7.47;;;11.30;99.90;;;;;;5022387;28;20193;-45
2021/10/31 05:30:25;;;;;;;8.93;7.90;;;11.40;99.90;;;;;;5007458;28;20191;-47
2021/10/31 05:32:51;;;;;;;8.70;7.60;;;11.40;99.90;;;;;;5006815;28;20426;-44
2021/10/31 05:35:17;;;;;;;8.20;7.00;;;11.50;99.90;;;;;;5006451;28;20191;-47
2021/10/31 05:37:47;;;;;;;10.47;8.27;;;11.50;99.90;;;;;;5006007;28;20437;-43
2021/10/31 05:40:15;;;;;;;12.10;7.57;;;11.60;99.90;;;;;;5012688;28;20639;-44
2021/10/31 05:42:42;;;;;;;10.30;7.40;;;11.60;99.90;;;;;;5013559;28;20441;-49
2021/10/31 05:45:09;;;;;;;11.03;7.07;;;11.60;99.90;;;;;;5006459;28;20434;-44
2021/10/31 05:47:39;;;;;;;8.67;6.97;;;11.60;99.90;;;;;;5015839;28;20413;-44
2021/10/31 05:50:06;;;;;;;8.87;7.87;;;11.60;99.90;;;;;;5006381;28;20958;-44
2021/10/31 05:52:32;;;;;;;9.50;7.93;;;11.70;99.90;;;;;;5006291;28;20440;-44
2021/10/31 05:55:00;;;;;;;8.77;7.40;;;11.80;99.90;;;;;;5014468;28;20823;-44
2021/10/31 05:57:26;;;;;;;8.07;7.27;;;11.70;99.90;;;;;;5017209;28;20437;-46
2021/10/31 05:59:52;;;;;;;9.80;7.90;;;11.70;99.90;;;;;;5006232;28;20454;-49
2021/10/31 06:02:18;;;;;;;8.07;7.27;;;11.60;99.90;;;;;;5011464;28;20421;-43
2021/10/31 06:04:45;;;;;;;10.20;8.10;;;11.80;99.90;;;;;;5005689;28;20234;-44
2021/10/31 06:07:11;;;;;;;9.10;7.07;;;11.70;99.90;;;;;;5016671;28;20220;-51
2021/10/31 06:09:37;;;;;;;7.93;6.90;;;12.00;99.90;;;;;;5011587;28;20784;-44
2021/10/31 06:12:07;;;;;;;11.20;8.10;;;11.70;99.90;;;;;;5015254;28;20462;-44
2021/10/31 06:14:35;;;;;;;9.10;7.40;;;11.70;99.90;;;;;;5015180;28;20422;-43
2021/10/31 06:17:04;;;;;;;9.67;7.47;;;11.70;99.90;;;;;;5007429;28;20422;-43
2021/10/31 06:19:32;;;;;;;8.00;6.60;;;11.60;99.90;;;;;;5005903;28;20465;-44
2021/10/31 06:21:58;;;;;;;7.30;6.50;;;11.60;99.90;;;;;;5006003;28;20441;-45
2021/10/31 06:24:24;;;;;;;9.50;7.20;;;11.60;99.90;;;;;;5013123;28;20441;-46
2021/10/31 06:26:49;;;;;;;9.03;6.90;;;11.60;99.90;;;;;;5009785;28;20451;-49
2021/10/31 06:29:16;;;;;;;11.33;9.03;;;11.70;99.90;;;;;;5008572;28;20623;-44
2021/10/31 06:31:42;;;;;;;8.37;7.47;;;11.60;99.90;;;;;;5006887;28;20220;-44
2021/10/31 06:34:08;;;;;;;11.30;7.43;;;11.60;99.90;;;;;;5019051;28;20636;-45
2021/10/31 06:36:34;;;;;;;9.10;7.10;;;11.60;99.90;;;;;;5009787;28;20437;-46
2021/10/31 06:38:59;;;;;;;9.70;7.30;;;11.60;99.90;;;;;;5014065;28;20525;-43
2021/10/31 06:41:25;;;;;;;9.60;7.97;;;11.60;99.90;;;;;;5017125;28;20925;-43
2021/10/31 06:43:51;;;;;;;11.00;8.20;;;11.60;99.90;;;;;;5019334;28;20191;-44
2021/10/31 06:46:17;;;;;;;9.73;7.50;;;11.60;99.90;;;;;;5008185;28;20221;-45
2021/10/31 06:48:43;;;;;;;10.10;8.37;;;11.60;99.90;;;;;;5016267;28;20202;-47
2021/10/31 06:51:09;;;;;;;9.00;7.40;;;11.60;99.90;;;;;;5009245;28;20429;-46
2021/10/31 06:53:35;;;;;;;8.60;7.10;;;11.60;99.90;;;;;;5009365;28;20558;-44
2021/10/31 06:56:01;;;;;;;10.53;7.70;;;11.70;99.90;;;;;;5019961;28;20422;-47
2021/10/31 06:58:27;;;;;;;8.97;8.07;;;11.60;99.90;;;;;;5023597;28;20445;-44
2021/10/31 07:00:53;;;;;;;9.63;7.57;;;11.60;99.90;;;;;;5013025;28;20481;-45
2021/10/31 07:03:19;;;;;;;8.47;7.07;;;11.60;99.90;;;;;;5010248;28;20426;-45
2021/10/31 07:05:45;;;;;;;9.07;7.83;;;11.60;99.90;;;;;;5009231;28;20410;-43
2021/10/31 07:08:11;;;;;;;8.40;7.17;;;11.60;99.90;;;;;;5019699;28;20787;-46
2021/10/31 07:10:37;;;;;;;8.50;7.33;;;11.60;99.90;;;;;;5012863;28;20487;-48
2021/10/31 07:13:03;;;;;;;7.73;6.73;;;11.70;99.90;;;;;;5022392;28;20452;-46
2021/10/31 07:15:28;;;;;;;8.40;6.80;;;11.80;99.90;;;;;;5009907;28;20206;-45
2021/10/31 07:17:57;;;;;;;7.87;6.93;;;11.70;99.90;;;;;;5033272;28;20627;-44
2021/10/31 07:20:26;;;;;;;9.30;6.77;;;11.80;99.90;;;;;;5012176;28;20472;-45
2021/10/31 07:22:55;;;;;;;6.47;5.83;;;11.90;99.90;;;;;;5008226;28;20938;-47
2021/10/31 07:25:22;;;;;;;7.50;5.67;;;12.00;99.90;;;;;;5015249;28;20528;-45
2021/10/31 07:27:48;;;;;;;7.90;5.80;;;12.10;99.90;;;;;;5013771;28;20420;-45
2021/10/31 07:30:15;;;;;;;6.23;5.63;;;12.20;99.90;;;;;;5022450;28;20836;-44
2021/10/31 07:32:41;;;;;;;6.30;5.10;;;12.30;99.90;;;;;;5008272;28;20426;-46
2021/10/31 07:35:07;;;;;;;6.10;5.00;;;12.30;99.90;;;;;;5018267;28;20425;-49
2021/10/31 07:37:34;;;;;;;4.83;3.93;;;12.50;99.90;;;;;;5007688;28;20469;-46
2021/10/31 07:40:00;;;;;;;5.20;4.70;;;12.30;99.90;;;;;;5011289;28;20536;-48
2021/10/31 07:42:30;;;;;;;5.30;4.33;;;12.30;99.90;;;;;;5025331;28;20417;-45
2021/10/31 07:44:57;;;;;;;4.43;3.97;;;12.30;99.90;;;;;;5016815;28;20430;-47
2021/10/31 07:47:22;;;;;;;4.70;4.20;;;12.30;99.90;;;;;;5007679;28;20479;-47
2021/10/31 07:49:50;;;;;;;4.83;4.33;;;12.40;99.90;;;;;;5008403;28;20889;-45
2021/10/31 07:52:17;;;;;;;7.10;4.40;;;12.40;99.90;;;;;;5007686;28;20468;-46
2021/10/31 07:54:43;;;;;;;5.80;4.80;;;12.20;99.90;;;;;;5007509;28;20434;-47
2021/10/31 07:57:09;;;;;;;5.23;4.20;;;12.50;99.90;;;;;;5018695;28;20429;-45
2021/10/31 07:59:35;;;;;;;3.80;3.50;;;12.50;99.90;;;;;;5013195;28;20466;-47
2021/10/31 08:02:04;;;;;;;3.87;3.57;;;12.60;99.90;;;;;;5009656;28;20241;-46
2021/10/31 08:04:30;;;;;;;3.80;3.30;;;12.60;99.90;;;;;;5024317;28;20423;-46
2021/10/31 08:06:56;;;;;;;4.63;4.10;;;12.60;99.90;;;;;;5029051;28;21005;-45
2021/10/31 08:09:21;;;;;;;4.70;4.03;;;12.60;99.90;;;;;;5036146;28;20422;-48
2021/10/31 08:11:47;;;;;;;3.53;3.13;;;12.60;99.90;;;;;;5023735;28;20198;-47
2021/10/31 08:14:13;;;;;;;4.00;3.60;;;12.60;99.90;;;;;;5017965;28;20653;-47
2021/10/31 08:16:38;;;;;;;3.40;3.10;;;12.60;99.90;;;;;;5025461;28;20191;-46
2021/10/31 08:19:05;;;;;;;4.33;3.20;;;12.60;99.90;;;;;;5020426;28;20268;-46
2021/10/31 08:21:32;;;;;;;3.33;3.03;;;12.70;99.90;;;;;;5027305;28;20578;-47
2021/10/31 08:23:57;;;;;;;2.97;2.67;;;12.80;99.90;;;;;;5029552;28;20975;-47
2021/10/31 08:26:23;;;;;;;3.33;3.00;;;13.00;99.90;;;;;;5022481;28;20583;-46
2021/10/31 08:28:50;;;;;;;3.20;2.90;;;13.10;99.90;;;;;;5030031;28;20514;-45
2021/10/31 08:31:25;;;;;;;2.53;2.33;;;13.30;99.90;;;;;;5033420;28;20249;-50
2021/10/31 08:33:57;;;;;;;3.53;3.23;;;13.60;99.90;;;;;;5032806;28;20763;-45
2021/10/31 08:36:24;;;;;;;3.03;2.60;;;13.80;99.90;;;;;;5033984;28;20433;-51
2021/10/31 08:38:49;;;;;;;3.27;2.63;;;14.00;99.90;;;;;;5028432;28;20467;-46
2021/10/31 08:41:18;;;;;;;3.03;2.47;;;14.10;99.90;;;;;;5021942;28;20536;-48
2021/10/31 08:43:44;;;;;;;2.90;2.53;;;14.30;99.90;;;;;;5025546;28;20541;-46
2021/10/31 08:46:11;;;;;;;3.20;2.23;;;14.40;99.90;;;;;;5023361;28;20433;-48
2021/10/31 08:48:38;;;;;;;3.23;1.90;;;14.60;99.90;;;;;;5022373;28;20506;-47
2021/10/31 08:51:05;;;;;;;2.30;2.10;;;14.70;99.90;;;;;;5022326;28;20429;-48
2021/10/31 08:53:32;;;;;;;1.80;1.70;;;14.70;99.90;;;;;;5021241;28;20410;-53
2021/10/31 08:55:58;;;;;;;2.40;1.90;;;14.70;99.90;;;;;;5017768;28;20441;-48
2021/10/31 08:58:24;;;;;;;2.63;1.80;;;14.80;99.90;;;;;;5011183;28;20775;-47
2021/10/31 09:00:50;;;;;;;3.07;2.27;;;15.00;99.90;;;;;;5030125;28;20479;-48
2021/10/31 09:03:15;;;;;;;2.10;1.90;;;15.20;99.90;;;;;;5017577;28;20441;-46
2021/10/31 09:05:41;;;;;;;1.73;1.63;;;15.20;99.90;;;;;;5022697;28;20759;-47
2021/10/31 09:08:09;;;;;;;2.53;1.80;;;15.30;99.90;;;;;;5022873;28;20685;-46
2021/10/31 09:10:35;;;;;;;1.63;1.53;;;15.40;99.90;;;;;;5021481;28;20207;-48
2021/10/31 09:13:01;;;;;;;1.80;1.67;;;15.40;99.90;;;;;;5014507;28;20841;-49
2021/10/31 09:15:31;;;;;;;1.67;1.57;;;15.50;99.90;;;;;;5019315;28;20414;-46
2021/10/31 09:17:58;;;;;;;2.37;2.17;;;15.50;99.90;;;;;;5015311;28;20426;-47
2021/10/31 09:20:25;;;;;;;2.23;1.60;;;15.50;99.90;;;;;;5008796;28;20466;-47
2021/10/31 09:22:53;;;;;;;2.27;1.50;;;15.40;99.90;;;;;;5006253;28;20931;-47
2021/10/31 09:25:20;;;;;;;2.10;1.90;;;15.40;99.90;;;;;;5008519;28;20560;-46
2021/10/31 09:27:46;;;;;;;2.40;1.50;;;15.40;99.90;;;;;;5019400;28;20777;-46
2021/10/31 09:30:13;;;;;;;2.40;1.63;;;15.40;99.90;;;;;;5014950;28;20445;-46
2021/10/31 09:32:48;;;;;;;1.83;1.70;;;15.30;99.90;;;;;;5004780;28;20917;-46
2021/10/31 09:35:16;;;;;;;2.17;1.70;;;15.40;99.90;;;;;;5018138;28;20817;-47
2021/10/31 09:37:43;;;;;;;1.90;1.50;;;15.40;99.90;;;;;;5006236;28;20660;-46
2021/10/31 09:40:09;;;;;;;1.50;1.40;;;15.40;99.90;;;;;;5007801;28;20488;-50
2021/10/31 09:42:36;;;;;;;2.20;2.03;;;15.30;99.90;;;;;;5014653;28;20424;-46
2021/10/31 09:45:04;;;;;;;1.57;1.47;;;15.30;99.90;;;;;;5011623;28;20426;-48
2021/10/31 09:47:30;;;;;;;1.80;1.70;;;15.30;99.90;;;;;;5005923;28;20433;-46
2021/10/31 09:49:56;;;;;;;2.03;1.50;;;15.30;99.90;;;;;;5013891;28;20422;-45
2021/10/31 09:52:28;;;;;;;2.23;1.70;;;15.40;99.90;;;;;;5006642;28;20692;-50
2021/10/31 09:54:55;;;;;;;2.07;1.40;;;15.50;99.90;;;;;;5011823;28;20424;-47
2021/10/31 09:57:21;;;;;;;1.80;1.70;;;15.60;99.90;;;;;;5018287;28;20430;-46
2021/10/31 09:59:53;;;;;;;3.43;1.60;;;15.70;99.90;;;;;;5015462;28;20487;-47
2021/10/31 10:02:38;;;;;;;1.70;1.60;;;15.70;99.90;;;;;;5011242;28;20426;-48
2021/10/31 10:05:06;;;;;;;2.40;2.00;;;15.70;99.90;;;;;;5011856;28;20946;-46
2021/10/31 10:07:31;;;;;;;1.80;1.70;;;15.90;99.90;;;;;;5018429;28;20465;-48
2021/10/31 10:09:57;;;;;;;1.63;1.53;;;16.10;99.90;;;;;;5020118;28;20437;-48
2021/10/31 10:12:25;;;;;;;2.60;1.80;;;16.30;99.90;;;;;;5020949;28;20198;-47
2021/10/31 10:15:05;;;;;;;3.43;2.37;;;16.40;99.90;;;;;;5019140;28;20218;-47
2021/10/31 10:17:50;;;;;;;2.93;2.60;;;16.50;99.90;;;;;;5013993;28;20452;-47
2021/10/31 10:20:18;;;;;;;3.40;2.13;;;16.50;99.90;;;;;;5022051;28;20464;-46
2021/10/31 10:22:45;;;;;;;3.07;2.70;;;16.50;99.90;;;;;;5030704;28;20432;-46
2021/10/31 10:25:11;;;;;;;3.20;2.60;;;16.50;99.90;;;;;;5029795;28;21028;-48
2021/10/31 10:27:52;;;;;;;3.10;2.50;;;16.50;99.90;;;;;;5008309;28;20414;-46
2021/10/31 10:30:21;;;;;;;3.10;2.60;;;16.40;99.90;;;;;;5015176;28;20421;-48
2021/10/31 10:32:58;;;;;;;7.00;2.80;;;16.50;99.90;;;;;;5005218;28;20786;-46
2021/10/31 10:35:26;;;;;;;3.17;2.87;;;16.40;99.90;;;;;;5012999;28;20422;-47
2021/10/31 10:37:53;;;;;;;2.40;2.13;;;16.40;99.90;;;;;;5005571;28;20457;-46
2021/10/31 10:40:25;;;;;;;2.53;2.33;;;16.40;99.90;;;;;;5005434;28;20470;-46
2021/10/31 10:42:54;;;;;;;3.57;2.60;;;16.30;99.90;;;;;;5008696;28;20425;-49
2021/10/31 10:45:25;;;;;;;3.60;2.20;;;16.40;99.90;;;;;;5020725;28;20417;-46
2021/10/31 10:47:55;;;;;;;4.33;3.10;;;16.30;99.90;;;;;;5022057;28;20425;-48
2021/10/31 10:50:35;;;;;;;3.20;2.50;;;16.30;99.90;;;;;;5024809;28;20433;-50
2021/10/31 10:53:01;;;;;;;3.17;2.53;;;16.30;99.90;;;;;;5016722;28;20458;-47
2021/10/31 10:55:29;;;;;;;3.07;2.60;;;16.40;99.90;;;;;;5017053;28;20432;-45
2021/10/31 10:58:01;;;;;;;3.67;3.13;;;16.30;99.90;;;;;;5011954;28;20564;-46
2021/10/31 11:00:48;;;;;;;3.80;2.83;;;16.30;99.90;;;;;;5016800;28;20545;-50
2021/10/31 11:03:18;;;;;;;3.50;2.60;;;16.20;99.90;;;;;;5004992;28;20430;-46
2021/10/31 11:05:45;;;;;;;5.10;3.23;;;16.20;99.90;;;;;;5016441;28;20789;-46
2021/10/31 11:08:16;;;;;;;3.80;3.00;;;16.20;99.90;;;;;;5023616;28;20429;-46
2021/10/31 11:10:48;;;;;;;3.40;3.10;;;16.20;99.90;;;;;;5007805;28;20430;-51
2021/10/31 11:13:14;;;;;;;2.90;2.70;;;16.20;99.90;;;;;;5013220;28;20425;-46
2021/10/31 11:15:40;;;;;;;3.50;3.20;;;16.20;99.90;;;;;;5021658;28;20436;-48
2021/10/31 11:18:08;;;;;;;3.80;3.20;;;16.20;99.90;;;;;;5010714;28;20183;-46
2021/10/31 11:20:37;;;;;;;2.97;2.53;;;16.20;99.90;;;;;;5019841;28;20623;-46
2021/10/31 11:23:07;;;;;;;3.10;2.73;;;16.20;99.90;;;;;;5007784;28;20883;-49
2021/10/31 11:25:35;;;;;;;4.57;2.90;;;16.30;99.90;;;;;;5007431;28;20496;-52
2021/10/31 11:28:04;;;;;;;2.53;2.33;;;16.30;99.90;;;;;;5024283;28;20815;-48
2021/10/31 11:30:31;;;;;;;2.90;2.60;;;16.40;99.90;;;;;;5019030;28;20539;-52
2021/10/31 11:32:58;;;;;;;2.70;2.30;;;16.40;99.90;;;;;;5021078;28;20433;-46
2021/10/31 11:35:24;;;;;;;2.70;2.50;;;16.50;99.90;;;;;;5013243;28;20417;-47
2021/10/31 11:37:55;;;;;;;2.70;2.37;;;16.60;99.90;;;;;;5026952;28;20426;-51
2021/10/31 11:40:47;;;;;;;2.87;2.67;;;16.70;99.90;;;;;;5022287;28;21333;-48
2021/10/31 11:43:23;;;;;;;3.07;2.83;;;16.80;99.90;;;;;;5015608;28;20513;-45
2021/10/31 11:45:51;;;;;;;2.77;2.57;;;16.90;99.90;;;;;;5025040;28;21052;-50
2021/10/31 11:48:17;;;;;;;3.00;2.70;;;16.90;99.90;;;;;;5023432;28;20904;-51
2021/10/31 11:50:59;;;;;;;3.20;3.00;;;16.90;99.90;;;;;;5025024;28;20707;-50
2021/10/31 11:53:26;;;;;;;3.20;2.27;;;16.90;99.90;;;;;;5007006;28;20186;-48
2021/10/31 11:55:55;;;;;;;2.53;2.37;;;16.90;99.90;;;;;;5022363;28;20457;-48
2021/10/31 11:58:24;;;;;;;1.90;1.70;;;16.80;99.90;;;;;;5010622;28;21121;-49
2021/10/31 12:00:54;;;;;;;2.43;2.33;;;16.80;99.90;;;;;;5024880;28;20612;-50
2021/10/31 12:03:32;;;;;;;4.53;2.57;;;16.80;99.90;;;;;;5031006;28;20486;-48
2021/10/31 12:06:30;;;;;;;2.67;2.47;;;16.90;99.90;;;;;;5027428;28;20519;-48
2021/10/31 12:09:04;;;;;;;2.97;2.67;;;16.80;99.90;;;;;;5021234;28;20524;-50
2021/10/31 12:11:30;;;;;;;2.60;2.40;;;16.90;99.90;;;;;;5016894;28;21019;-46
2021/10/31 12:14:03;;;;;;;2.60;2.40;;;16.90;99.90;;;;;;5013667;28;20429;-48
2021/10/31 12:16:49;;;;;;;2.77;2.20;;;16.90;99.90;;;;;;5023150;28;20304;-48
2021/10/31 12:19:15;;;;;;;2.47;2.27;;;16.80;99.90;;;;;;5007100;28;20523;-47
2021/10/31 12:21:41;;;;;;;3.10;2.53;;;16.70;99.90;;;;;;5021376;28;20532;-49
2021/10/31 12:24:17;;;;;;;2.60;2.40;;;16.70;99.90;;;;;;5015148;28;20425;-50
2021/10/31 12:26:52;;;;;;;2.27;2.07;;;16.70;99.90;;;;;;5006590;28;20499;-49
2021/10/31 12:29:25;;;;;;;4.07;2.63;;;16.70;99.90;;;;;;5007705;28;20425;-47
2021/10/31 12:31:59;;;;;;;2.50;2.30;;;16.70;99.90;;;;;;5011414;28;20988;-49
2021/10/31 12:34:34;;;;;;;2.53;2.33;;;16.70;99.90;;;;;;5006195;28;20627;-50
2021/10/31 12:37:00;;;;;;;3.10;2.60;;;16.60;99.90;;;;;;5019123;28;20500;-47
2021/10/31 12:39:30;;;;;;;3.50;2.10;;;16.60;99.90;;;;;;5015013;28;20469;-51
2021/10/31 12:42:27;;;;;;;2.50;2.30;;;16.60;99.90;;;;;;5017280;28;20492;-50
2021/10/31 12:44:59;;;;;;;2.40;2.20;;;16.60;99.90;;;;;;5020816;28;20831;-48
2021/10/31 12:47:39;;;;;;;3.50;2.37;;;16.60;99.90;;;;;;5020607;28;20433;-50
2021/10/31 12:50:08;;;;;;;2.40;2.00;;;16.60;99.90;;;;;;5020802;28;20435;-49
2021/10/31 12:52:34;;;;;;;4.10;2.00;;;16.60;99.90;;;;;;5023099;28;20543;-47
2021/10/31 12:55:04;;;;;;;3.73;2.10;;;16.50;99.90;;;;;;5022033;28;20519;-50